Time;durP1;ratioP1;P1;durP2;ratioP2;P2;SDS_P1;SDS_P2;PMS_P1;PMS_P2;Temp;Humidity;BMP_temperature;BMP_pressure;BME280_temperature;BME280_humidity;BME280_pressure;Samples;Min_cycle;Max_cycle;Signal;HPM_P1;HPM_P2
2021/12/23 00:00:32;;;;;;;66.27;31.27;;;;;;;-4.54;100.00;-23686.13;5075145;28;20266;-72
2021/12/23 00:02:58;;;;;;;60.77;29.77;;;;;;;-4.62;100.00;-23683.81;5075089;28;20170;-73
2021/12/23 00:05:23;;;;;;;57.10;28.07;;;;;;;-4.60;100.00;-23684.41;5075147;28;20171;-73
2021/12/23 00:07:48;;;;;;;62.07;27.87;;;;;;;-4.88;100.00;-23676.34;5075143;28;20257;-73
2021/12/23 00:10:14;;;;;;;66.30;28.33;;;;;;;-4.67;100.00;-23682.41;5074821;28;20197;-73
2021/12/23 00:12:44;;;;;;;63.90;28.80;;;;;;;-5.37;100.00;-23662.66;5074774;28;20176;-71
2021/12/23 00:18:17;;;;;;;68.00;30.87;;;;;;;-4.60;100.00;-23684.56;5074992;28;20311;-72
2021/12/23 00:25:47;;;;;;;66.57;30.23;;;;;;;-4.97;100.00;-23674.03;5075129;28;20224;-71
2021/12/23 00:28:12;;;;;;;72.37;31.87;;;;;;;-4.66;100.00;-23682.69;5074959;28;20179;-70
2021/12/23 00:30:38;;;;;;;71.53;32.13;;;;;;;-4.86;100.00;-23677.06;5074704;28;20218;-71
2021/12/23 00:33:03;;;;;;;71.10;31.57;;;;;;;-4.67;100.00;-23682.53;5074715;28;20556;-73
2021/12/23 00:35:29;;;;;;;74.13;32.10;;;;;;;-4.83;100.00;-23677.94;5074794;28;20174;-73
2021/12/23 00:38:00;;;;;;;75.80;32.37;;;;;;;-5.19;100.00;-23667.69;5074294;28;20186;-73
2021/12/23 00:40:26;;;;;;;70.57;33.37;;;;;;;-4.87;100.00;-23676.78;5072991;28;20645;-71
2021/12/23 00:42:51;;;;;;;71.33;33.23;;;;;;;-4.90;100.00;-23675.91;5074328;28;20257;-72
2021/12/23 00:45:17;;;;;;;79.50;34.87;;;;;;;-4.86;100.00;-23677.06;5073588;28;20236;-72
2021/12/23 00:47:42;;;;;;;72.37;32.90;;;;;;;-4.78;100.00;-23679.38;5074792;28;20171;-71
2021/12/23 00:50:08;;;;;;;75.60;33.90;;;;;;;-4.66;100.00;-23682.69;5074194;28;20608;-73
2021/12/23 00:52:39;;;;;;;88.60;36.50;;;;;;;-5.09;100.00;-23670.44;5074147;28;20274;-73
2021/12/23 00:55:06;;;;;;;82.83;36.77;;;;;;;-4.87;100.00;-23676.78;5086632;28;20535;-73
2021/12/23 00:57:37;;;;;;;80.60;36.30;;;;;;;-5.16;100.00;-23668.41;5090019;28;20217;-73
2021/12/23 01:00:10;;;;;;;84.30;35.70;;;;;;;-4.79;100.00;-23679.06;5081031;28;20182;-73
2021/12/23 01:02:35;;;;;;;88.47;37.30;;;;;;;-4.80;100.00;-23678.66;5073771;28;20174;-71
2021/12/23 01:05:02;;;;;;;81.87;36.30;;;;;;;-5.11;100.00;-23669.84;5071959;28;20175;-73
2021/12/23 01:07:28;;;;;;;82.90;37.60;;;;;;;-4.83;100.00;-23677.94;5073391;28;20236;-71
2021/12/23 01:09:54;;;;;;;90.03;43.97;;;;;;;-5.37;100.00;-23662.66;5071797;28;20211;-72
2021/12/23 01:12:25;;;;;;;91.37;40.50;;;;;;;-4.88;100.00;-23676.47;5073316;28;20182;-72
2021/12/23 01:15:09;;;;;;;90.30;38.80;;;;;;;-5.32;100.00;-23663.81;5073776;28;20158;-73
2021/12/23 01:17:53;;;;;;;101.83;40.60;;;;;;;-4.95;100.00;-23674.59;5073192;28;20224;-71
2021/12/23 01:20:25;;;;;;;88.10;38.17;;;;;;;-5.20;100.00;-23667.41;5073229;28;20664;-75
2021/12/23 01:22:51;;;;;;;94.47;38.10;;;;;;;-5.40;100.00;-23661.78;5073157;28;20190;-74
2021/12/23 01:25:16;;;;;;;91.80;37.63;;;;;;;-5.16;100.00;-23668.41;5073457;28;20663;-72
2021/12/23 01:27:41;;;;;;;87.67;37.50;;;;;;;-5.58;100.00;-23656.44;5072003;28;20170;-71
2021/12/23 01:30:07;;;;;;;101.27;42.23;;;;;;;-5.36;100.00;-23662.94;5073542;28;20624;-72
2021/12/23 01:32:33;;;;;;;96.17;41.23;;;;;;;-5.49;100.00;-23659.03;5074056;28;20527;-73
2021/12/23 01:34:58;;;;;;;89.40;43.77;;;;;;;-4.89;100.00;-23676.19;5073049;28;20189;-73
2021/12/23 01:37:24;;;;;;;89.13;42.20;;;;;;;-5.03;100.00;-23672.31;5072961;28;20203;-74
2021/12/23 01:39:49;;;;;;;84.07;38.53;;;;;;;-4.89;100.00;-23676.19;5073525;28;20663;-73
2021/12/23 01:42:14;;;;;;;91.03;38.57;;;;;;;-5.24;100.00;-23666.09;5073008;28;20225;-71
2021/12/23 01:44:40;;;;;;;86.93;37.37;;;;;;;-4.82;100.00;-23678.22;5072986;28;20226;-71
2021/12/23 01:47:05;;;;;;;81.13;37.00;;;;;;;-4.99;100.00;-23673.31;5073295;28;20177;-75
2021/12/23 01:49:31;;;;;;;89.77;38.47;;;;;;;-4.88;100.00;-23676.47;5072985;28;20251;-72
2021/12/23 01:51:57;;;;;;;85.43;39.90;;;;;;;-5.34;100.00;-23663.38;5073289;28;20170;-74
2021/12/23 01:54:23;;;;;;;78.47;36.23;;;;;;;-5.31;100.00;-23664.09;5073071;28;20198;-72
2021/12/23 01:56:49;;;;;;;83.17;39.63;;;;;;;-5.11;100.00;-23669.84;5072066;28;20648;-74
2021/12/23 01:59:15;;;;;;;113.03;57.33;;;;;;;-5.08;100.00;-23670.72;5072653;28;20174;-73
2021/12/23 02:01:41;;;;;;;84.70;39.40;;;;;;;-4.96;100.00;-23674.19;5073027;28;20162;-73
2021/12/23 02:04:07;;;;;;;83.00;35.60;;;;;;;-5.07;100.00;-23671.16;5072512;28;20275;-73
2021/12/23 02:06:33;;;;;;;75.13;35.23;;;;;;;-5.32;100.00;-23663.81;5072732;28;20180;-72
2021/12/23 02:08:58;;;;;;;86.93;39.20;;;;;;;-4.85;100.00;-23677.34;5072976;28;20178;-73
2021/12/23 02:11:24;;;;;;;87.20;44.60;;;;;;;-5.05;100.00;-23671.59;5073056;28;20613;-74
2021/12/23 02:13:50;;;;;;;74.50;34.13;;;;;;;-5.62;100.00;-23655.28;5072607;28;20170;-73
2021/12/23 02:16:15;;;;;;;70.03;32.93;;;;;;;-4.79;100.00;-23679.06;5072750;28;20171;-73
2021/12/23 02:18:41;;;;;;;75.87;34.77;;;;;;;-4.91;100.00;-23675.63;5071515;28;20170;-72
2021/12/23 02:21:07;;;;;;;73.30;33.20;;;;;;;-5.35;100.00;-23663.06;5071224;28;20179;-74
2021/12/23 02:23:34;;;;;;;70.47;32.33;;;;;;;-4.82;100.00;-23678.22;5072538;28;20169;-72
2021/12/23 02:25:59;;;;;;;82.00;31.33;;;;;;;-5.33;100.00;-23663.50;5072613;28;20571;-73
2021/12/23 02:28:26;;;;;;;65.30;29.63;;;;;;;-5.27;100.00;-23665.25;5072133;28;20177;-74
2021/12/23 02:30:52;;;;;;;62.40;28.20;;;;;;;-4.95;100.00;-23674.47;5072265;28;20204;-73
2021/12/23 02:33:20;;;;;;;63.27;30.93;;;;;;;-5.04;100.00;-23672.00;5072323;28;20178;-72
2021/12/23 02:35:45;;;;;;;72.23;31.13;;;;;;;-4.97;100.00;-23673.88;5072673;28;20228;-73
2021/12/23 02:38:11;;;;;;;72.70;32.17;;;;;;;-5.37;100.00;-23662.66;5072562;28;20180;-73
2021/12/23 02:40:39;;;;;;;65.17;30.67;;;;;;;-4.83;100.00;-23677.94;5072745;28;20174;-73
2021/12/23 02:43:07;;;;;;;68.03;31.77;;;;;;;-4.83;100.00;-23677.78;5072651;28;20174;-73
2021/12/23 02:45:33;;;;;;;64.10;31.50;;;;;;;-5.02;100.00;-23672.44;5071224;28;20228;-73
2021/12/23 02:47:58;;;;;;;68.30;29.63;;;;;;;-5.30;100.00;-23664.38;5072426;28;20182;-74
2021/12/23 02:50:24;;;;;;;61.13;29.97;;;;;;;-5.33;100.00;-23663.50;5071861;28;20685;-73
2021/12/23 02:52:49;;;;;;;67.60;30.60;;;;;;;-5.55;100.00;-23657.31;5072521;28;20291;-75
2021/12/23 02:55:17;;;;;;;64.03;30.57;;;;;;;-5.39;100.00;-23662.06;5071899;28;20552;-72
2021/12/23 02:57:43;;;;;;;65.57;31.03;;;;;;;-5.37;100.00;-23662.50;5072337;28;20304;-73
2021/12/23 03:00:09;;;;;;;69.20;31.00;;;;;;;-5.46;100.00;-23659.91;5072266;28;20729;-74
2021/12/23 03:02:37;;;;;;;64.37;30.83;;;;;;;-5.43;100.00;-23660.91;5072341;28;20642;-73
2021/12/23 03:05:03;;;;;;;68.03;31.63;;;;;;;-5.06;100.00;-23671.44;5072191;28;20174;-75
2021/12/23 03:07:28;;;;;;;67.10;31.63;;;;;;;-4.99;100.00;-23673.31;5072803;28;20298;-74
2021/12/23 03:09:54;;;;;;;68.07;30.67;;;;;;;-5.48;100.00;-23659.34;5076544;28;20277;-75
2021/12/23 03:12:19;;;;;;;64.93;29.87;;;;;;;-5.06;100.00;-23671.28;5076328;28;20192;-74
2021/12/23 03:14:45;;;;;;;63.00;30.20;;;;;;;-4.94;100.00;-23674.75;5078674;28;20178;-72
2021/12/23 03:17:10;;;;;;;60.13;29.57;;;;;;;-4.96;100.00;-23674.31;5077543;28;20178;-73
2021/12/23 03:19:36;;;;;;;66.23;28.57;;;;;;;-5.00;100.00;-23673.16;5078148;28;20177;-73
2021/12/23 03:22:01;;;;;;;58.57;26.20;;;;;;;-5.78;100.00;-23650.69;5078828;28;20173;-74
2021/12/23 03:24:28;;;;;;;60.93;30.07;;;;;;;-5.35;100.00;-23663.06;5082539;28;20174;-73
2021/12/23 03:26:53;;;;;;;64.60;28.90;;;;;;;-5.26;100.00;-23665.69;5088540;28;20178;-73
2021/12/23 03:29:19;;;;;;;64.50;29.27;;;;;;;-4.84;100.00;-23677.63;5082242;28;20194;-74
2021/12/23 03:31:44;;;;;;;53.90;27.03;;;;;;;-5.24;100.00;-23666.25;5084333;28;20181;-74
2021/12/23 03:34:09;;;;;;;62.70;28.77;;;;;;;-5.37;100.00;-23662.66;5081159;28;20178;-74
2021/12/23 03:36:35;;;;;;;54.30;27.90;;;;;;;-5.05;100.00;-23671.59;5076179;28;20231;-74
2021/12/23 03:39:02;;;;;;;60.53;28.90;;;;;;;-5.47;100.00;-23659.63;5074292;28;20181;-76
2021/12/23 03:41:27;;;;;;;55.43;27.30;;;;;;;-5.08;100.00;-23670.88;5075378;28;20669;-73
2021/12/23 03:43:52;;;;;;;60.80;29.83;;;;;;;-5.02;100.00;-23672.44;5075572;28;20170;-72
2021/12/23 03:46:18;;;;;;;61.93;28.77;;;;;;;-5.02;100.00;-23672.44;5076285;28;20174;-74
2021/12/23 03:48:43;;;;;;;65.60;29.83;;;;;;;-5.56;100.00;-23657.16;5091421;28;20663;-72
2021/12/23 03:51:09;;;;;;;60.97;29.30;;;;;;;-5.57;100.00;-23656.88;5075375;28;20210;-76
2021/12/23 03:53:34;;;;;;;58.67;27.83;;;;;;;-5.15;100.00;-23668.84;5074199;28;20749;-73
2021/12/23 03:56:00;;;;;;;61.77;27.97;;;;;;;-5.41;100.00;-23661.34;5075969;28;20181;-75
2021/12/23 03:58:25;;;;;;;57.23;27.33;;;;;;;-5.31;100.00;-23664.09;5075295;28;20217;-74
2021/12/23 04:00:51;;;;;;;52.40;26.13;;;;;;;-5.67;100.00;-23653.84;5075543;28;20170;-74
2021/12/23 04:03:17;;;;;;;51.60;26.50;;;;;;;-5.46;100.00;-23660.06;5075200;28;20327;-75
2021/12/23 04:05:42;;;;;;;57.47;27.83;;;;;;;-5.37;100.00;-23662.50;5075166;28;20174;-76
2021/12/23 04:08:08;;;;;;;57.77;27.60;;;;;;;-5.82;100.00;-23649.66;5075058;28;20178;-75
2021/12/23 04:10:35;;;;;;;56.60;27.83;;;;;;;-5.41;100.00;-23661.50;5075162;28;20221;-74
2021/12/23 04:13:01;;;;;;;58.80;27.37;;;;;;;-5.58;100.00;-23656.59;5074881;28;20174;-74
2021/12/23 04:15:26;;;;;;;57.73;26.90;;;;;;;-5.91;100.00;-23647.06;5075084;28;20220;-75
2021/12/23 04:17:52;;;;;;;57.17;28.57;;;;;;;-5.36;100.00;-23662.94;5075561;28;20182;-73
2021/12/23 04:20:21;;;;;;;61.13;28.67;;;;;;;-5.61;100.00;-23655.59;5074181;28;20245;-75
2021/12/23 04:22:53;;;;;;;62.67;29.53;;;;;;;-5.22;100.00;-23666.69;5078521;28;20189;-74
2021/12/23 04:25:22;;;;;;;58.00;28.23;;;;;;;-5.72;100.00;-23652.56;5076625;28;20185;-74
2021/12/23 04:27:49;;;;;;;65.33;29.87;;;;;;;-5.39;100.00;-23662.06;5075372;28;20178;-76
2021/12/23 04:30:16;;;;;;;59.57;28.37;;;;;;;-5.31;100.00;-23664.22;5082770;28;20705;-77
2021/12/23 04:32:43;;;;;;;53.47;24.93;;;;;;;-5.27;100.00;-23665.38;5079123;28;20192;-74
2021/12/23 04:35:09;;;;;;;52.17;26.30;;;;;;;-5.36;100.00;-23662.94;5077720;28;20235;-74
2021/12/23 04:37:35;;;;;;;49.53;24.83;;;;;;;-5.74;100.00;-23651.97;5077488;28;20694;-75
2021/12/23 04:40:01;;;;;;;48.83;25.47;;;;;;;-5.19;100.00;-23667.69;5078476;28;20190;-74
2021/12/23 04:42:27;;;;;;;55.47;25.60;;;;;;;-5.38;100.00;-23662.22;5075071;28;20199;-75
2021/12/23 04:44:52;;;;;;;53.50;25.30;;;;;;;-5.31;100.00;-23664.22;5077816;28;20226;-76
2021/12/23 04:47:18;;;;;;;53.93;26.40;;;;;;;-5.36;100.00;-23662.94;5075172;28;20182;-77
2021/12/23 04:49:43;;;;;;;50.30;26.00;;;;;;;-5.09;100.00;-23670.56;5080797;28;20198;-75
2021/12/23 04:52:09;;;;;;;49.80;24.33;;;;;;;-4.97;100.00;-23673.88;5073986;28;20190;-74
2021/12/23 04:54:34;;;;;;;48.53;24.20;;;;;;;-5.08;100.00;-23670.72;5081993;28;20839;-74
2021/12/23 04:56:59;;;;;;;44.90;20.87;;;;;;;-4.93;100.00;-23675.19;5073534;28;20625;-74
2021/12/23 04:59:25;;;;;;;52.93;26.37;;;;;;;-5.45;100.00;-23660.19;5081240;28;20186;-74
2021/12/23 05:01:51;;;;;;;42.70;22.67;;;;;;;-5.50;100.00;-23658.75;5073181;28;20178;-74
2021/12/23 05:04:17;;;;;;;56.00;26.23;;;;;;;-5.60;100.00;-23656.00;5082685;28;20182;-74
2021/12/23 05:06:42;;;;;;;56.50;27.70;;;;;;;-5.73;100.00;-23652.13;5071679;28;20219;-74
2021/12/23 05:09:08;;;;;;;52.50;26.10;;;;;;;-5.35;100.00;-23663.06;5081262;28;20562;-75
2021/12/23 05:11:33;;;;;;;53.70;25.57;;;;;;;-5.54;100.00;-23657.75;5071916;28;20238;-74
2021/12/23 05:13:59;;;;;;;54.33;25.97;;;;;;;-5.16;100.00;-23668.41;5070193;28;20186;-75
2021/12/23 05:16:24;;;;;;;58.53;25.67;;;;;;;-5.37;100.00;-23662.66;5081070;28;20174;-74
2021/12/23 05:18:50;;;;;;;54.87;26.83;;;;;;;-5.62;100.00;-23655.44;5081050;28;20514;-76
2021/12/23 05:21:15;;;;;;;50.33;25.23;;;;;;;-5.60;100.00;-23655.88;5081388;28;20232;-74
2021/12/23 05:23:41;;;;;;;53.63;25.20;;;;;;;-5.26;100.00;-23665.69;5079670;28;20620;-75
2021/12/23 05:26:08;;;;;;;48.73;24.60;;;;;;;-5.55;100.00;-23657.47;5080224;28;20185;-74
2021/12/23 05:28:34;;;;;;;50.17;23.03;;;;;;;-5.44;100.00;-23660.63;5080484;28;20170;-76
2021/12/23 05:31:00;;;;;;;46.13;22.17;;;;;;;-5.81;100.00;-23650.09;5072218;28;20604;-74
2021/12/23 05:33:25;;;;;;;46.93;23.97;;;;;;;-5.29;100.00;-23664.66;5080040;28;20185;-79
2021/12/23 05:35:51;;;;;;;49.37;25.77;;;;;;;-5.44;100.00;-23660.63;5072911;28;20205;-75
2021/12/23 05:38:16;;;;;;;50.17;25.47;;;;;;;-5.35;100.00;-23663.22;5081266;28;20189;-76
2021/12/23 05:40:42;;;;;;;47.73;24.13;;;;;;;-5.28;100.00;-23665.09;5072201;28;20178;-76
2021/12/23 05:43:08;;;;;;;53.97;26.90;;;;;;;-5.33;100.00;-23663.50;5081521;28;20533;-77
2021/12/23 05:45:33;;;;;;;50.90;24.73;;;;;;;-5.80;100.00;-23650.38;5054773;28;20254;-75
2021/12/23 05:47:59;;;;;;;52.30;24.83;;;;;;;-5.20;100.00;-23667.25;5078421;28;20690;-71
2021/12/23 05:50:25;;;;;;;52.13;24.73;;;;;;;-5.59;100.00;-23656.31;5072145;28;20209;-77
2021/12/23 05:52:51;;;;;;;49.80;24.37;;;;;;;-5.34;100.00;-23663.38;5078510;28;20224;-78
2021/12/23 05:55:18;;;;;;;53.47;26.00;;;;;;;-5.78;100.00;-23650.97;5074774;28;20178;-76
2021/12/23 05:57:44;;;;;;;55.87;26.47;;;;;;;-5.35;100.00;-23663.22;5077369;28;20189;-76
2021/12/23 06:00:31;;;;;;;57.27;27.20;;;;;;;-5.06;100.00;-23671.44;5074790;28;20573;-73
2021/12/23 06:02:58;;;;;;;58.13;28.70;;;;;;;-5.70;100.00;-23653.13;5074457;28;20189;-73
2021/12/23 06:05:24;;;;;;;86.43;38.83;;;;;;;-5.27;100.00;-23665.25;5069565;28;20276;-71
2021/12/23 06:07:50;;;;;;;67.37;31.40;;;;;;;-5.02;100.00;-23672.59;5070473;28;20668;-72
2021/12/23 06:10:16;;;;;;;88.20;38.13;;;;;;;-5.36;100.00;-23662.78;5070444;28;20248;-72
2021/12/23 06:12:42;;;;;;;116.77;48.70;;;;;;;-4.95;100.00;-23674.59;5067287;28;20252;-72
2021/12/23 06:15:09;;;;;;;98.13;43.00;;;;;;;-5.27;100.00;-23665.38;5070360;28;20638;-74
2021/12/23 06:17:35;;;;;;;94.90;42.83;;;;;;;-5.27;100.00;-23665.25;5079545;28;20209;-73
2021/12/23 06:20:01;;;;;;;107.17;46.47;;;;;;;-4.64;100.00;-23683.41;5075669;28;20644;-73
2021/12/23 06:22:27;;;;;;;107.40;47.80;;;;;;;-4.69;100.00;-23681.81;5075227;28;20193;-72
2021/12/23 06:24:52;;;;;;;109.77;50.97;;;;;;;-4.69;100.00;-23681.97;5071549;28;20174;-72
2021/12/23 06:27:19;;;;;;;118.63;48.73;;;;;;;-4.73;100.00;-23680.66;5071442;28;20178;-71
2021/12/23 06:29:45;;;;;;;128.73;52.70;;;;;;;-5.14;100.00;-23669.13;5081228;28;20203;-75
2021/12/23 06:32:11;;;;;;;130.57;60.90;;;;;;;-4.59;100.00;-23684.84;5077007;28;20212;-76
2021/12/23 06:34:38;;;;;;;141.00;66.23;;;;;;;-4.61;100.00;-23684.25;5080377;28;20181;-76
2021/12/23 06:37:04;;;;;;;150.67;63.73;;;;;;;-4.66;100.00;-23682.81;5071483;28;20182;-76
2021/12/23 06:39:33;;;;;;;121.07;57.03;;;;;;;-4.92;100.00;-23675.34;5076331;28;20197;-74
2021/12/23 06:42:00;;;;;;;120.77;56.97;;;;;;;-4.54;100.00;-23686.28;5076148;28;20274;-75
2021/12/23 06:44:26;;;;;;;105.83;49.17;;;;;;;-4.73;100.00;-23680.66;5077928;28;20217;-76
2021/12/23 06:46:52;;;;;;;129.03;58.03;;;;;;;-4.15;100.00;-23697.22;5079910;28;20193;-76
2021/12/23 06:49:17;;;;;;;132.00;57.90;;;;;;;-4.18;100.00;-23696.34;5079813;28;20221;-75
2021/12/23 06:51:44;;;;;;;135.77;59.50;;;;;;;-3.77;100.00;-23708.00;5071125;28;20216;-74
2021/12/23 06:54:13;;;;;;;113.50;51.60;;;;;;;-3.90;100.00;-23704.41;5078889;28;20184;-75
2021/12/23 06:56:38;;;;;;;130.50;59.70;;;;;;;-4.03;100.00;-23700.69;5071232;28;20174;-76
2021/12/23 06:59:04;;;;;;;65.83;34.00;;;;;;;-3.76;100.00;-23708.44;5076206;28;20215;-77
2021/12/23 07:01:32;;;;;;;57.73;29.60;;;;;;;-3.74;100.00;-23709.03;5072779;28;20215;-77
2021/12/23 07:04:07;;;;;;;48.47;24.70;;;;;;;-3.84;100.00;-23706.16;5070435;28;20259;-77
2021/12/23 07:06:35;;;;;;;44.67;20.40;;;;;;;-3.45;100.00;-23717.09;5070436;28;20588;-76
2021/12/23 07:09:04;;;;;;;54.77;26.83;;;;;;;-3.34;100.00;-23720.25;5071735;28;20541;-76
2021/12/23 07:11:31;;;;;;;62.80;30.83;;;;;;;-3.71;100.00;-23709.75;5069986;28;20185;-79
2021/12/23 07:13:56;;;;;;;43.20;23.43;;;;;;;-3.03;100.00;-23729.16;5071559;28;20253;-76
2021/12/23 07:16:22;;;;;;;44.30;22.37;;;;;;;-3.01;100.00;-23729.75;5071427;28;20206;-76
2021/12/23 07:18:47;;;;;;;38.63;20.50;;;;;;;-3.24;100.00;-23723.13;5068909;28;20235;-77
2021/12/23 07:21:13;;;;;;;33.83;18.67;;;;;;;-2.91;100.00;-23732.59;5071606;28;20213;-77
2021/12/23 07:23:38;;;;;;;31.93;15.40;;;;;;;-2.58;100.00;-23741.81;5070144;28;20610;-76
2021/12/23 07:26:04;;;;;;;27.83;15.80;;;;;;;-3.07;100.00;-23728.00;5071356;28;20184;-75
2021/12/23 07:28:29;;;;;;;27.10;14.67;;;;;;;-2.68;100.00;-23739.06;5071707;28;20185;-77
2021/12/23 07:30:55;;;;;;;27.77;15.00;;;;;;;-2.74;100.00;-23737.50;5071114;28;20217;-77
2021/12/23 07:33:21;;;;;;;30.57;15.67;;;;;;;-2.42;100.00;-23746.41;5071068;28;20556;-77
2021/12/23 07:35:48;;;;;;;28.30;16.20;;;;;;;-2.54;100.00;-23743.09;5080514;28;20178;-77
2021/12/23 07:38:14;;;;;;;27.57;16.07;;;;;;;-2.09;100.00;-23755.88;5071428;28;20197;-75
2021/12/23 07:40:40;;;;;;;26.97;15.33;;;;;;;-2.20;100.00;-23752.72;5071423;28;20193;-77
2021/12/23 07:43:20;;;;;;;31.77;15.90;;;;;;;-1.90;100.00;-23761.19;5070014;28;20197;-76
2021/12/23 07:45:46;;;;;;;29.37;15.47;;;;;;;-1.96;100.00;-23759.63;5069896;28;20229;-76
2021/12/23 07:48:12;;;;;;;33.40;16.40;;;;;;;-2.18;100.00;-23753.31;5070490;28;20183;-75
2021/12/23 07:50:40;;;;;;;29.03;15.17;;;;;;;-1.98;100.00;-23759.03;5071221;28;20225;-75
2021/12/23 07:53:05;;;;;;;28.13;15.60;;;;;;;-1.81;100.00;-23763.94;5071018;28;20265;-76
2021/12/23 07:55:30;;;;;;;31.23;17.17;;;;;;;-1.96;100.00;-23759.63;5072888;28;20220;-76
2021/12/23 07:57:56;;;;;;;32.50;16.10;;;;;;;-2.16;100.00;-23753.72;5074441;28;20627;-76
2021/12/23 08:00:21;;;;;;;35.40;19.00;;;;;;;-1.57;100.00;-23770.66;5074643;28;20602;-76
2021/12/23 08:02:47;;;;;;;35.43;19.10;;;;;;;-1.63;100.00;-23768.94;5074600;28;20202;-77
2021/12/23 08:05:12;;;;;;;37.77;17.90;;;;;;;-1.43;100.00;-23774.53;5074562;28;20174;-76
2021/12/23 08:07:38;;;;;;;33.57;18.63;;;;;;;-2.02;100.00;-23757.91;5073974;28;20178;-77
2021/12/23 08:10:04;;;;;;;38.33;19.87;;;;;;;-1.62;100.00;-23769.09;5093272;28;20197;-77
2021/12/23 08:12:29;;;;;;;35.17;18.97;;;;;;;-0.94;100.00;-23788.59;5074318;28;20249;-76
2021/12/23 08:14:54;;;;;;;39.20;18.10;;;;;;;-1.22;100.00;-23780.56;5073756;28;20221;-76
2021/12/23 08:17:20;;;;;;;37.20;18.43;;;;;;;-1.20;100.00;-23781.00;5074028;28;20637;-76
2021/12/23 08:19:45;;;;;;;28.80;15.87;;;;;;;-0.84;100.00;-23791.19;5076066;28;20222;-77
2021/12/23 08:22:11;;;;;;;29.83;17.00;;;;;;;-0.65;100.00;-23796.63;5075734;28;20178;-77
2021/12/23 08:24:36;;;;;;;30.23;16.67;;;;;;;-0.66;100.00;-23796.47;5075932;28;20528;-77
2021/12/23 08:27:04;;;;;;;34.80;16.53;;;;;;;-0.78;100.00;-23792.91;5074948;28;20180;-77
2021/12/23 08:29:30;;;;;;;30.20;15.90;;;;;;;-0.62;100.00;-23797.50;5074586;28;20263;-76
2021/12/23 08:31:55;;;;;;;32.80;15.27;;;;;;;-0.51;100.00;-23800.63;5073351;28;20272;-76
2021/12/23 08:34:22;;;;;;;27.53;16.37;;;;;;;-0.64;100.00;-23796.91;5074294;28;20646;-76
2021/12/23 08:36:47;;;;;;;28.63;15.93;;;;;;;-0.94;100.00;-23788.59;5073661;28;20205;-77
2021/12/23 08:39:14;;;;;;;31.37;16.97;;;;;;;-0.79;100.00;-23792.63;5074076;28;20608;-77
2021/12/23 08:41:40;;;;;;;27.23;15.73;;;;;;;-0.81;100.00;-23792.03;5074309;28;20178;-77
2021/12/23 08:44:05;;;;;;;31.43;15.40;;;;;;;-0.59;100.00;-23798.34;5073949;28;20231;-77
2021/12/23 08:46:31;;;;;;;23.17;14.27;;;;;;;-0.46;100.00;-23802.22;5074916;28;20182;-76
2021/12/23 08:48:56;;;;;;;28.97;15.03;;;;;;;-0.32;100.00;-23805.94;5072971;28;20174;-78
2021/12/23 08:51:22;;;;;;;27.83;14.67;;;;;;;-0.64;100.00;-23796.91;5074402;28;20292;-76
2021/12/23 08:53:48;;;;;;;29.40;15.23;;;;;;;-0.59;100.00;-23798.50;5078777;28;20178;-75
2021/12/23 08:56:13;;;;;;;32.20;15.23;;;;;;;-0.01;100.00;-23814.81;5091548;28;20181;-76
2021/12/23 08:58:40;;;;;;;27.23;14.50;;;;;;;0.04;100.00;-23816.25;5087230;28;20181;-75
2021/12/23 09:01:06;;;;;;;22.33;14.47;;;;;;;-0.23;100.00;-23808.66;5088426;28;20174;-75
2021/12/23 09:03:34;;;;;;;28.90;14.13;;;;;;;0.04;100.00;-23816.13;5085966;28;20199;-74
2021/12/23 09:06:01;;;;;;;28.90;13.77;;;;;;;0.17;100.00;-23819.84;5075836;28;20197;-72
2021/12/23 09:08:27;;;;;;;23.23;13.63;;;;;;;0.39;100.00;-23826.28;5075785;28;20722;-77
2021/12/23 09:10:55;;;;;;;23.83;14.27;;;;;;;0.14;100.00;-23819.13;5072757;28;20232;-72
2021/12/23 09:13:20;;;;;;;23.30;13.60;;;;;;;-0.10;100.00;-23812.38;5072660;28;20537;-75
2021/12/23 09:15:45;;;;;;;28.47;14.27;;;;;;;0.66;100.00;-23833.72;5089161;28;20296;-74
2021/12/23 09:18:11;;;;;;;23.80;13.20;;;;;;;0.07;100.00;-23817.13;5072159;28;20196;-77
2021/12/23 09:20:37;;;;;;;26.33;12.57;;;;;;;0.48;100.00;-23828.56;5072353;28;20243;-75
2021/12/23 09:23:03;;;;;;;22.70;13.40;;;;;;;0.05;100.00;-23816.53;5073314;28;20552;-78
2021/12/23 09:25:33;;;;;;;23.43;13.43;;;;;;;0.79;100.00;-23837.56;5072543;28;20182;-78
2021/12/23 09:28:59;;;;;;;26.27;12.73;;;;;;;0.88;100.00;-23840.00;5071788;28;20285;-78
2021/12/23 09:34:35;;;;;;;27.90;12.57;;;;;;;1.05;100.00;-23844.72;5083647;28;20569;-78
2021/12/23 09:37:00;;;;;;;20.43;11.70;;;;;;;1.19;100.00;-23848.88;5091743;28;20182;-81
2021/12/23 09:39:27;;;;;;;17.30;10.97;;;;;;;1.21;100.00;-23849.31;5093331;28;20169;-79
2021/12/23 09:41:52;;;;;;;19.53;10.93;;;;;;;0.70;100.00;-23835.00;5084722;28;20240;-78
2021/12/23 09:44:18;;;;;;;20.17;10.93;;;;;;;1.05;100.00;-23844.88;5071695;28;20716;-79
2021/12/23 09:46:44;;;;;;;19.10;11.47;;;;;;;0.97;100.00;-23842.44;5070360;28;20540;-78
2021/12/23 09:49:09;;;;;;;18.40;10.87;;;;;;;0.95;100.00;-23841.88;5071021;28;20186;-80
2021/12/23 09:51:35;;;;;;;18.07;10.70;;;;;;;1.47;100.00;-23856.59;5071468;28;20173;-80
2021/12/23 09:54:07;;;;;;;19.13;10.87;;;;;;;1.36;99.51;-23853.44;5072066;28;20184;-79
2021/12/23 09:56:33;;;;;;;16.90;10.33;;;;;;;1.71;97.46;-23863.59;5071161;28;20181;-79
2021/12/23 09:58:59;;;;;;;17.30;9.63;;;;;;;1.73;94.37;-23864.16;5072432;28;20234;-80
2021/12/23 10:01:30;;;;;;;21.00;10.57;;;;;;;1.50;94.78;-23857.59;5071831;28;20307;-80
2021/12/23 10:03:56;;;;;;;17.67;9.90;;;;;;;1.63;92.46;-23861.31;5070848;28;20184;-79
2021/12/23 10:06:24;;;;;;;14.90;9.77;;;;;;;1.76;90.79;-23865.03;5072250;28;20169;-79
2021/12/23 10:08:50;;;;;;;18.33;9.60;;;;;;;1.75;91.63;-23864.75;5072674;28;20701;-79
2021/12/23 10:37:03;;;;;;;18.00;10.63;;;;;;;3.28;82.65;-23907.72;5093426;28;20283;-80
2021/12/23 10:38:47;;;;;;;15.00;9.50;;;;;;;2.07;81.01;-23873.59;5093729;28;20310;-78
2021/12/23 10:41:12;;;;;;;16.17;10.37;;;;;;;2.48;82.69;-23885.31;5083044;28;20166;-80
2021/12/23 10:43:46;;;;;;;18.00;9.57;;;;;;;2.37;83.12;-23882.16;5081758;28;20264;-79
2021/12/23 10:46:19;;;;;;;18.03;10.03;;;;;;;2.49;84.00;-23885.59;5081462;28;20658;-79
2021/12/23 10:49:22;;;;;;;14.07;8.83;;;;;;;1.78;82.82;-23865.59;5072047;28;20178;-79
2021/12/23 11:00:28;;;;;;;12.13;8.10;;;;;;;1.95;82.34;-23870.16;5071007;28;20255;-80
2021/12/23 11:03:11;;;;;;;17.13;8.47;;;;;;;2.04;83.03;-23872.88;5071519;28;20176;-78
2021/12/23 11:05:45;;;;;;;15.97;9.23;;;;;;;2.24;83.43;-23878.47;5071178;28;20334;-78
2021/12/23 11:08:20;;;;;;;16.30;9.10;;;;;;;2.19;81.93;-23877.16;5071270;28;20269;-78
2021/12/23 11:27:25;;;;;;;15.73;9.60;;;;;;;3.48;78.47;-23913.56;5071675;28;20204;-81
2021/12/23 11:31:33;;;;;;;20.83;10.67;;;;;;;3.51;77.13;-23914.25;5072895;28;20205;-79
2021/12/23 11:38:31;;;;;;;21.53;11.50;;;;;;;3.22;79.03;-23906.13;5075502;28;20655;-79
2021/12/23 11:41:04;;;;;;;23.57;11.53;;;;;;;2.39;78.97;-23882.75;5089858;28;20189;-77
2021/12/23 11:43:48;;;;;;;24.03;11.70;;;;;;;2.66;80.03;-23890.44;5094954;28;20249;-78
2021/12/23 11:46:15;;;;;;;21.33;11.87;;;;;;;2.98;79.63;-23899.28;5094174;28;20212;-78
2021/12/23 11:48:44;;;;;;;21.60;11.80;;;;;;;2.99;79.22;-23899.72;5093071;28;20550;-75
2021/12/23 11:51:21;;;;;;;20.90;10.87;;;;;;;2.81;79.74;-23894.44;5094482;28;20766;-77
2021/12/23 11:53:48;;;;;;;22.77;11.70;;;;;;;2.86;78.91;-23896.00;5094024;28;20524;-76
2021/12/23 11:56:17;;;;;;;19.77;11.77;;;;;;;3.18;78.38;-23905.00;5093361;28;20204;-77
2021/12/23 11:58:45;;;;;;;23.07;13.70;;;;;;;2.88;79.28;-23896.59;5093277;28;20260;-75
2021/12/23 12:01:17;;;;;;;24.23;14.30;;;;;;;2.71;80.33;-23891.59;5093321;28;20174;-76
2021/12/23 12:03:53;;;;;;;27.73;14.47;;;;;;;2.92;80.21;-23897.56;5094687;28;20173;-73
2021/12/23 12:06:23;;;;;;;26.33;14.97;;;;;;;3.33;79.33;-23909.13;5093102;28;20261;-77
2021/12/23 12:08:53;;;;;;;26.97;14.57;;;;;;;3.37;78.30;-23910.41;5094973;28;20162;-75
2021/12/23 12:11:21;;;;;;;30.13;15.00;;;;;;;3.13;79.62;-23903.44;5094963;28;20266;-77